weather.gov     
National Weather Service

Other Surface Observations
NWS Homepage
This page is being discontinued on March 12, 2014.
The same data is available at this site. Please update your bookmarks.
Thank you, and we apologize for the inconvenience.
Please send an email to SR-SRH.Webmaster@noaa.gov with any concerns.


Current Version
Previous Version:    01  02  03  04  05  06  07  08  09  10  11  12  13  14  15  16  17  18  19  20  21  22  23  24  25  26  27  28  29  30  
   31  32  33  34  35  36  37  38  39  40  41  42  43  44  45  46  47  48  49  50  51  52  53  54  55  56  57  58  59  60  
[Printable]
384
SXUS55 KTFX 221553
OSOTFX
AREA AWOS OBSERVATIONS
NATIONAL WEATHER SERVICE GREAT FALLS MT
0950 AM MDT FRI AUG 22 2014

METAR KPWD 221545Z AUTO 05012G17KT 10SM 18/11 A3013 RMK PLENTYWOOD
METAR KPO1 221545Z AUTO 26012G15KT 16/13 A3011 RMK POPLAR
METAR K1S3 221545Z AUTO 00000KT 10SM 17/15 A3008 RMK FORSYTH
METAR KS71 221545Z AUTO 07008G14KT 10SM 15/13 A3012 RMK CHINOOK
METAR K6S0 221545Z AUTO 10SM 13/12 A3012 RMK BIG TIMBER
METAR K79S 221545Z AUTO 32003KT 2 1/2SM 13/12 A3013 RMK FORT BENTON
METAR KEKS 221545Z AUTO 30004KT 10SM 11/09 A3018 RMK ENNIS
METAR K38S 221545Z AUTO 00000KT 10SM 12/09 A3015 RMK DEER LODGE
METAR K3U3 221545Z AUTO 35004KT 11/09 A3011 RMK ANACONDA
METAR K6S5 221545Z AUTO 33005KT 10SM 14/10 A3004 RMK HAMILTON
METAR KS59 221545Z AUTO 31003KT 10SM 13/11 A3010 RMK LIBBY
METAR K88M 221545Z AUTO 00000KT 10SM 12/10 RMK EUREKA




U.S. Dept. of Commerce
NOAA National Weather Service
1325 East West Highway
Silver Spring, MD 20910
E-mail: w-nws.webmaster@noaa.gov
Page last modified: May 16, 2007
NATIONAL WEATHER SERVICE: for Safety, for Work, for Fun - FOR LIFE